sensor_id;sensor_type;location;lat;lon;timestamp;P1;durP1;ratioP1;P2;durP2;ratioP2
4432;SDS011;2229;48.708;9.706;2022-07-23T00:01:47;6.80;;;2.57;;
4432;SDS011;2229;48.708;9.706;2022-07-23T00:04:14;5.53;;;2.90;;
4432;SDS011;2229;48.708;9.706;2022-07-23T00:06:41;3.93;;;2.20;;
4432;SDS011;2229;48.708;9.706;2022-07-23T00:09:07;4.63;;;2.60;;
4432;SDS011;2229;48.708;9.706;2022-07-23T00:11:34;5.67;;;3.53;;
4432;SDS011;2229;48.708;9.706;2022-07-23T00:14:00;4.13;;;2.50;;
4432;SDS011;2229;48.708;9.706;2022-07-23T00:16:27;4.10;;;2.83;;
4432;SDS011;2229;48.708;9.706;2022-07-23T00:18:54;4.57;;;2.60;;
4432;SDS011;2229;48.708;9.706;2022-07-23T00:21:21;4.77;;;2.50;;
4432;SDS011;2229;48.708;9.706;2022-07-23T00:23:47;3.00;;;2.07;;
4432;SDS011;2229;48.708;9.706;2022-07-23T00:26:14;4.27;;;2.57;;
4432;SDS011;2229;48.708;9.706;2022-07-23T00:28:40;4.10;;;2.80;;
4432;SDS011;2229;48.708;9.706;2022-07-23T00:31:07;6.53;;;3.00;;
4432;SDS011;2229;48.708;9.706;2022-07-23T00:33:34;4.67;;;3.20;;
4432;SDS011;2229;48.708;9.706;2022-07-23T00:36:04;4.50;;;2.43;;
4432;SDS011;2229;48.708;9.706;2022-07-23T00:38:31;4.60;;;3.07;;
4432;SDS011;2229;48.708;9.706;2022-07-23T00:40:57;4.60;;;3.23;;
4432;SDS011;2229;48.708;9.706;2022-07-23T00:43:24;2.57;;;1.97;;
4432;SDS011;2229;48.708;9.706;2022-07-23T00:45:51;4.80;;;3.33;;
4432;SDS011;2229;48.708;9.706;2022-07-23T00:48:17;2.73;;;2.20;;
4432;SDS011;2229;48.708;9.706;2022-07-23T00:50:45;6.20;;;3.63;;
4432;SDS011;2229;48.708;9.706;2022-07-23T00:53:11;4.50;;;3.13;;
4432;SDS011;2229;48.708;9.706;2022-07-23T00:55:39;7.63;;;2.53;;
4432;SDS011;2229;48.708;9.706;2022-07-23T00:58:06;5.83;;;3.43;;
4432;SDS011;2229;48.708;9.706;2022-07-23T01:00:33;6.43;;;3.57;;
4432;SDS011;2229;48.708;9.706;2022-07-23T01:02:59;5.77;;;3.70;;
4432;SDS011;2229;48.708;9.706;2022-07-23T01:05:26;4.30;;;2.50;;
4432;SDS011;2229;48.708;9.706;2022-07-23T01:07:53;3.93;;;3.20;;
4432;SDS011;2229;48.708;9.706;2022-07-23T01:10:20;4.57;;;2.80;;
4432;SDS011;2229;48.708;9.706;2022-07-23T01:12:58;5.10;;;2.57;;
4432;SDS011;2229;48.708;9.706;2022-07-23T01:15:27;4.20;;;2.53;;
4432;SDS011;2229;48.708;9.706;2022-07-23T01:17:54;7.10;;;2.57;;
4432;SDS011;2229;48.708;9.706;2022-07-23T01:20:21;3.20;;;2.57;;
4432;SDS011;2229;48.708;9.706;2022-07-23T01:22:57;4.37;;;2.37;;
4432;SDS011;2229;48.708;9.706;2022-07-23T01:25:24;4.67;;;3.27;;
4432;SDS011;2229;48.708;9.706;2022-07-23T01:27:55;4.53;;;2.30;;
4432;SDS011;2229;48.708;9.706;2022-07-23T01:30:22;4.07;;;3.03;;
4432;SDS011;2229;48.708;9.706;2022-07-23T01:32:49;5.03;;;2.70;;
4432;SDS011;2229;48.708;9.706;2022-07-23T01:35:16;6.10;;;3.40;;
4432;SDS011;2229;48.708;9.706;2022-07-23T01:37:43;5.70;;;3.10;;
4432;SDS011;2229;48.708;9.706;2022-07-23T01:40:10;6.10;;;3.80;;
4432;SDS011;2229;48.708;9.706;2022-07-23T01:42:38;11.33;;;3.10;;
4432;SDS011;2229;48.708;9.706;2022-07-23T01:45:06;4.50;;;3.00;;
4432;SDS011;2229;48.708;9.706;2022-07-23T01:47:34;7.00;;;3.70;;
4432;SDS011;2229;48.708;9.706;2022-07-23T01:50:01;3.70;;;2.83;;
4432;SDS011;2229;48.708;9.706;2022-07-23T01:52:42;15.03;;;3.50;;
4432;SDS011;2229;48.708;9.706;2022-07-23T01:55:08;5.90;;;3.30;;
4432;SDS011;2229;48.708;9.706;2022-07-23T01:57:38;4.83;;;3.50;;
4432;SDS011;2229;48.708;9.706;2022-07-23T02:00:06;4.40;;;2.90;;
4432;SDS011;2229;48.708;9.706;2022-07-23T02:02:41;5.00;;;2.60;;
4432;SDS011;2229;48.708;9.706;2022-07-23T02:05:08;5.77;;;3.27;;
4432;SDS011;2229;48.708;9.706;2022-07-23T02:07:36;3.30;;;2.60;;
4432;SDS011;2229;48.708;9.706;2022-07-23T02:10:03;4.97;;;2.50;;
4432;SDS011;2229;48.708;9.706;2022-07-23T02:12:30;5.50;;;2.80;;
4432;SDS011;2229;48.708;9.706;2022-07-23T02:14:57;5.03;;;3.03;;
4432;SDS011;2229;48.708;9.706;2022-07-23T02:17:24;6.10;;;3.70;;
4432;SDS011;2229;48.708;9.706;2022-07-23T02:19:51;4.20;;;2.87;;
4432;SDS011;2229;48.708;9.706;2022-07-23T02:22:18;5.30;;;3.03;;
4432;SDS011;2229;48.708;9.706;2022-07-23T02:24:44;4.57;;;2.87;;
4432;SDS011;2229;48.708;9.706;2022-07-23T02:27:11;4.77;;;2.40;;
4432;SDS011;2229;48.708;9.706;2022-07-23T02:29:38;5.07;;;2.97;;
4432;SDS011;2229;48.708;9.706;2022-07-23T02:32:05;4.10;;;2.90;;
4432;SDS011;2229;48.708;9.706;2022-07-23T02:34:32;5.50;;;3.40;;
4432;SDS011;2229;48.708;9.706;2022-07-23T02:37:00;3.80;;;2.77;;
4432;SDS011;2229;48.708;9.706;2022-07-23T02:39:28;4.47;;;3.10;;
4432;SDS011;2229;48.708;9.706;2022-07-23T02:41:55;4.10;;;3.17;;
4432;SDS011;2229;48.708;9.706;2022-07-23T02:44:21;4.77;;;2.70;;
4432;SDS011;2229;48.708;9.706;2022-07-23T02:46:51;7.10;;;3.57;;
4432;SDS011;2229;48.708;9.706;2022-07-23T02:49:18;4.73;;;3.30;;
4432;SDS011;2229;48.708;9.706;2022-07-23T02:51:47;4.30;;;2.80;;
4432;SDS011;2229;48.708;9.706;2022-07-23T02:54:14;3.73;;;2.53;;
4432;SDS011;2229;48.708;9.706;2022-07-23T02:56:42;4.47;;;2.97;;
4432;SDS011;2229;48.708;9.706;2022-07-23T02:59:10;5.43;;;3.70;;
4432;SDS011;2229;48.708;9.706;2022-07-23T03:01:37;3.83;;;2.17;;
4432;SDS011;2229;48.708;9.706;2022-07-23T03:04:05;4.50;;;2.80;;
4432;SDS011;2229;48.708;9.706;2022-07-23T03:06:32;3.83;;;2.47;;
4432;SDS011;2229;48.708;9.706;2022-07-23T03:08:59;3.90;;;2.53;;
4432;SDS011;2229;48.708;9.706;2022-07-23T03:11:25;3.33;;;2.13;;
4432;SDS011;2229;48.708;9.706;2022-07-23T03:13:52;8.03;;;4.30;;
4432;SDS011;2229;48.708;9.706;2022-07-23T03:16:19;4.43;;;2.97;;
4432;SDS011;2229;48.708;9.706;2022-07-23T03:18:46;3.57;;;2.27;;
4432;SDS011;2229;48.708;9.706;2022-07-23T03:21:13;2.70;;;2.17;;
4432;SDS011;2229;48.708;9.706;2022-07-23T03:23:40;7.97;;;3.43;;
4432;SDS011;2229;48.708;9.706;2022-07-23T03:26:06;4.40;;;2.70;;
4432;SDS011;2229;48.708;9.706;2022-07-23T03:28:33;3.80;;;2.77;;
4432;SDS011;2229;48.708;9.706;2022-07-23T03:31:00;7.33;;;2.87;;
4432;SDS011;2229;48.708;9.706;2022-07-23T03:33:26;4.10;;;2.80;;
4432;SDS011;2229;48.708;9.706;2022-07-23T03:35:53;4.50;;;2.93;;
4432;SDS011;2229;48.708;9.706;2022-07-23T03:38:25;5.17;;;3.03;;
4432;SDS011;2229;48.708;9.706;2022-07-23T03:40:53;7.30;;;4.10;;
4432;SDS011;2229;48.708;9.706;2022-07-23T03:43:20;4.00;;;2.70;;
4432;SDS011;2229;48.708;9.706;2022-07-23T03:45:47;5.47;;;3.10;;
4432;SDS011;2229;48.708;9.706;2022-07-23T03:48:14;5.73;;;2.93;;
4432;SDS011;2229;48.708;9.706;2022-07-23T03:50:40;3.70;;;2.80;;
4432;SDS011;2229;48.708;9.706;2022-07-23T03:53:07;6.00;;;3.27;;
4432;SDS011;2229;48.708;9.706;2022-07-23T03:55:34;4.73;;;3.10;;
4432;SDS011;2229;48.708;9.706;2022-07-23T03:58:01;5.60;;;2.40;;
4432;SDS011;2229;48.708;9.706;2022-07-23T04:00:28;4.17;;;2.63;;
4432;SDS011;2229;48.708;9.706;2022-07-23T04:02:55;4.87;;;3.20;;
4432;SDS011;2229;48.708;9.706;2022-07-23T04:05:21;4.27;;;2.80;;
4432;SDS011;2229;48.708;9.706;2022-07-23T04:07:52;6.53;;;4.17;;
4432;SDS011;2229;48.708;9.706;2022-07-23T04:10:18;3.10;;;2.53;;
4432;SDS011;2229;48.708;9.706;2022-07-23T04:12:46;2.90;;;2.07;;
4432;SDS011;2229;48.708;9.706;2022-07-23T04:15:13;4.33;;;2.03;;
4432;SDS011;2229;48.708;9.706;2022-07-23T04:17:40;5.60;;;3.07;;
4432;SDS011;2229;48.708;9.706;2022-07-23T04:20:06;5.40;;;3.20;;
4432;SDS011;2229;48.708;9.706;2022-07-23T04:22:41;4.37;;;2.80;;
4432;SDS011;2229;48.708;9.706;2022-07-23T04:25:08;3.70;;;2.60;;
4432;SDS011;2229;48.708;9.706;2022-07-23T04:27:35;6.00;;;3.23;;
4432;SDS011;2229;48.708;9.706;2022-07-23T04:30:02;4.50;;;2.80;;
4432;SDS011;2229;48.708;9.706;2022-07-23T04:32:30;4.23;;;2.70;;
4432;SDS011;2229;48.708;9.706;2022-07-23T04:34:57;4.70;;;2.70;;
4432;SDS011;2229;48.708;9.706;2022-07-23T04:37:23;3.90;;;2.80;;
4432;SDS011;2229;48.708;9.706;2022-07-23T04:39:50;4.93;;;3.17;;
4432;SDS011;2229;48.708;9.706;2022-07-23T04:42:16;5.20;;;3.33;;
4432;SDS011;2229;48.708;9.706;2022-07-23T04:44:43;2.60;;;1.77;;
4432;SDS011;2229;48.708;9.706;2022-07-23T04:47:10;4.40;;;3.10;;
4432;SDS011;2229;48.708;9.706;2022-07-23T04:49:37;5.13;;;3.10;;
4432;SDS011;2229;48.708;9.706;2022-07-23T04:52:04;3.67;;;2.40;;
4432;SDS011;2229;48.708;9.706;2022-07-23T04:54:31;5.63;;;3.23;;
4432;SDS011;2229;48.708;9.706;2022-07-23T04:56:58;5.63;;;3.17;;
4432;SDS011;2229;48.708;9.706;2022-07-23T04:59:24;3.90;;;2.53;;
4432;SDS011;2229;48.708;9.706;2022-07-23T05:01:57;6.93;;;2.73;;
4432;SDS011;2229;48.708;9.706;2022-07-23T05:04:24;5.33;;;2.80;;
4432;SDS011;2229;48.708;9.706;2022-07-23T05:06:51;2.93;;;2.13;;
4432;SDS011;2229;48.708;9.706;2022-07-23T05:09:18;5.77;;;3.10;;
4432;SDS011;2229;48.708;9.706;2022-07-23T05:11:44;3.70;;;2.70;;
4432;SDS011;2229;48.708;9.706;2022-07-23T05:14:21;3.60;;;2.53;;
4432;SDS011;2229;48.708;9.706;2022-07-23T05:16:48;4.13;;;2.73;;
4432;SDS011;2229;48.708;9.706;2022-07-23T05:19:20;4.83;;;2.90;;
4432;SDS011;2229;48.708;9.706;2022-07-23T05:21:47;4.50;;;2.80;;
4432;SDS011;2229;48.708;9.706;2022-07-23T05:24:15;5.10;;;2.50;;
4432;SDS011;2229;48.708;9.706;2022-07-23T05:26:42;4.83;;;3.07;;
4432;SDS011;2229;48.708;9.706;2022-07-23T05:29:09;6.87;;;3.00;;
4432;SDS011;2229;48.708;9.706;2022-07-23T05:31:36;4.57;;;3.50;;
4432;SDS011;2229;48.708;9.706;2022-07-23T05:34:02;5.67;;;2.80;;
4432;SDS011;2229;48.708;9.706;2022-07-23T05:36:30;7.77;;;3.87;;
4432;SDS011;2229;48.708;9.706;2022-07-23T05:38:57;8.23;;;3.00;;
4432;SDS011;2229;48.708;9.706;2022-07-23T05:41:27;4.97;;;2.53;;
4432;SDS011;2229;48.708;9.706;2022-07-23T05:43:53;4.70;;;2.90;;
4432;SDS011;2229;48.708;9.706;2022-07-23T05:46:20;6.27;;;3.37;;
4432;SDS011;2229;48.708;9.706;2022-07-23T05:48:51;5.70;;;3.10;;
4432;SDS011;2229;48.708;9.706;2022-07-23T05:51:37;6.60;;;3.43;;
4432;SDS011;2229;48.708;9.706;2022-07-23T05:54:04;4.07;;;2.80;;
4432;SDS011;2229;48.708;9.706;2022-07-23T05:56:35;6.40;;;3.27;;
4432;SDS011;2229;48.708;9.706;2022-07-23T05:59:02;5.07;;;3.17;;
4432;SDS011;2229;48.708;9.706;2022-07-23T06:01:29;5.80;;;2.90;;
4432;SDS011;2229;48.708;9.706;2022-07-23T06:04:03;6.20;;;3.63;;
4432;SDS011;2229;48.708;9.706;2022-07-23T06:06:34;4.27;;;2.50;;
4432;SDS011;2229;48.708;9.706;2022-07-23T06:09:02;6.57;;;4.13;;
4432;SDS011;2229;48.708;9.706;2022-07-23T06:11:29;7.87;;;3.77;;
4432;SDS011;2229;48.708;9.706;2022-07-23T06:13:56;4.67;;;2.80;;
4432;SDS011;2229;48.708;9.706;2022-07-23T06:16:33;4.70;;;2.73;;
4432;SDS011;2229;48.708;9.706;2022-07-23T06:19:00;6.57;;;3.80;;
4432;SDS011;2229;48.708;9.706;2022-07-23T06:21:29;5.33;;;2.70;;
4432;SDS011;2229;48.708;9.706;2022-07-23T06:23:57;3.20;;;2.17;;
4432;SDS011;2229;48.708;9.706;2022-07-23T06:26:23;5.93;;;3.03;;
4432;SDS011;2229;48.708;9.706;2022-07-23T06:28:50;4.13;;;2.47;;
4432;SDS011;2229;48.708;9.706;2022-07-23T06:31:17;3.67;;;2.20;;
4432;SDS011;2229;48.708;9.706;2022-07-23T06:33:44;4.33;;;2.03;;
4432;SDS011;2229;48.708;9.706;2022-07-23T06:36:10;2.90;;;2.00;;
4432;SDS011;2229;48.708;9.706;2022-07-23T06:38:37;3.10;;;2.10;;
4432;SDS011;2229;48.708;9.706;2022-07-23T06:41:03;2.97;;;2.03;;
4432;SDS011;2229;48.708;9.706;2022-07-23T06:43:30;4.40;;;2.10;;
4432;SDS011;2229;48.708;9.706;2022-07-23T06:45:57;3.23;;;2.00;;
4432;SDS011;2229;48.708;9.706;2022-07-23T06:48:24;2.90;;;1.60;;
4432;SDS011;2229;48.708;9.706;2022-07-23T06:50:51;2.30;;;1.63;;
4432;SDS011;2229;48.708;9.706;2022-07-23T06:53:23;3.53;;;2.10;;
4432;SDS011;2229;48.708;9.706;2022-07-23T06:55:49;3.17;;;1.90;;
4432;SDS011;2229;48.708;9.706;2022-07-23T06:58:16;3.80;;;2.40;;
4432;SDS011;2229;48.708;9.706;2022-07-23T07:00:44;2.27;;;1.63;;
4432;SDS011;2229;48.708;9.706;2022-07-23T07:03:11;2.20;;;1.60;;
4432;SDS011;2229;48.708;9.706;2022-07-23T07:05:41;2.93;;;2.13;;
4432;SDS011;2229;48.708;9.706;2022-07-23T07:08:08;3.57;;;2.10;;
4432;SDS011;2229;48.708;9.706;2022-07-23T07:10:34;4.50;;;2.67;;
4432;SDS011;2229;48.708;9.706;2022-07-23T07:13:01;2.73;;;1.63;;
4432;SDS011;2229;48.708;9.706;2022-07-23T07:15:28;3.20;;;2.27;;
4432;SDS011;2229;48.708;9.706;2022-07-23T07:17:54;3.03;;;2.00;;
4432;SDS011;2229;48.708;9.706;2022-07-23T07:20:21;2.43;;;1.57;;
4432;SDS011;2229;48.708;9.706;2022-07-23T07:22:49;6.00;;;2.70;;
4432;SDS011;2229;48.708;9.706;2022-07-23T07:25:15;3.50;;;2.20;;
4432;SDS011;2229;48.708;9.706;2022-07-23T07:27:42;2.90;;;1.60;;
4432;SDS011;2229;48.708;9.706;2022-07-23T07:30:10;3.50;;;2.20;;
4432;SDS011;2229;48.708;9.706;2022-07-23T07:32:37;2.47;;;2.10;;
4432;SDS011;2229;48.708;9.706;2022-07-23T07:35:04;4.10;;;2.03;;
4432;SDS011;2229;48.708;9.706;2022-07-23T07:37:31;3.67;;;2.30;;
4432;SDS011;2229;48.708;9.706;2022-07-23T07:39:58;4.30;;;2.67;;
4432;SDS011;2229;48.708;9.706;2022-07-23T07:42:26;4.20;;;2.80;;
4432;SDS011;2229;48.708;9.706;2022-07-23T07:44:52;4.43;;;2.70;;
4432;SDS011;2229;48.708;9.706;2022-07-23T07:47:19;5.20;;;2.60;;
4432;SDS011;2229;48.708;9.706;2022-07-23T07:49:45;4.50;;;2.60;;
4432;SDS011;2229;48.708;9.706;2022-07-23T07:52:12;4.30;;;2.37;;
4432;SDS011;2229;48.708;9.706;2022-07-23T07:54:38;6.93;;;2.50;;
4432;SDS011;2229;48.708;9.706;2022-07-23T07:57:06;4.93;;;2.83;;
4432;SDS011;2229;48.708;9.706;2022-07-23T07:59:32;4.60;;;2.70;;
4432;SDS011;2229;48.708;9.706;2022-07-23T08:01:59;3.33;;;2.43;;
4432;SDS011;2229;48.708;9.706;2022-07-23T08:04:25;7.33;;;2.83;;
4432;SDS011;2229;48.708;9.706;2022-07-23T08:06:52;3.80;;;2.37;;
4432;SDS011;2229;48.708;9.706;2022-07-23T08:09:18;3.57;;;3.23;;
4432;SDS011;2229;48.708;9.706;2022-07-23T08:11:45;4.17;;;2.47;;
4432;SDS011;2229;48.708;9.706;2022-07-23T08:14:12;4.00;;;2.63;;
4432;SDS011;2229;48.708;9.706;2022-07-23T08:16:39;3.33;;;2.87;;
4432;SDS011;2229;48.708;9.706;2022-07-23T08:19:05;5.37;;;2.63;;
4432;SDS011;2229;48.708;9.706;2022-07-23T08:21:32;4.33;;;2.30;;
4432;SDS011;2229;48.708;9.706;2022-07-23T08:23:58;3.00;;;1.73;;
4432;SDS011;2229;48.708;9.706;2022-07-23T08:26:25;8.30;;;1.80;;
4432;SDS011;2229;48.708;9.706;2022-07-23T08:28:51;3.30;;;1.97;;
4432;SDS011;2229;48.708;9.706;2022-07-23T08:31:18;2.53;;;2.30;;
4432;SDS011;2229;48.708;9.706;2022-07-23T08:33:45;2.67;;;1.37;;
4432;SDS011;2229;48.708;9.706;2022-07-23T08:36:12;4.10;;;2.67;;
4432;SDS011;2229;48.708;9.706;2022-07-23T08:38:38;3.70;;;2.10;;
4432;SDS011;2229;48.708;9.706;2022-07-23T08:41:05;3.27;;;1.67;;
4432;SDS011;2229;48.708;9.706;2022-07-23T08:43:33;2.20;;;1.63;;
4432;SDS011;2229;48.708;9.706;2022-07-23T08:46:01;2.50;;;1.50;;
4432;SDS011;2229;48.708;9.706;2022-07-23T08:48:30;2.50;;;1.70;;
4432;SDS011;2229;48.708;9.706;2022-07-23T08:50:57;2.83;;;1.60;;
4432;SDS011;2229;48.708;9.706;2022-07-23T08:53:25;2.60;;;1.80;;
4432;SDS011;2229;48.708;9.706;2022-07-23T08:55:53;3.33;;;2.23;;
4432;SDS011;2229;48.708;9.706;2022-07-23T08:58:22;3.90;;;2.70;;
4432;SDS011;2229;48.708;9.706;2022-07-23T09:00:49;3.30;;;2.00;;
4432;SDS011;2229;48.708;9.706;2022-07-23T09:03:16;3.77;;;2.47;;
4432;SDS011;2229;48.708;9.706;2022-07-23T09:05:45;3.57;;;2.40;;
4432;SDS011;2229;48.708;9.706;2022-07-23T09:08:15;4.70;;;2.80;;
4432;SDS011;2229;48.708;9.706;2022-07-23T09:10:47;2.67;;;1.70;;
4432;SDS011;2229;48.708;9.706;2022-07-23T09:13:22;5.40;;;2.37;;
4432;SDS011;2229;48.708;9.706;2022-07-23T09:16:05;3.90;;;2.20;;
4432;SDS011;2229;48.708;9.706;2022-07-23T09:18:37;3.33;;;2.47;;
4432;SDS011;2229;48.708;9.706;2022-07-23T09:23:57;2.77;;;1.37;;
4432;SDS011;2229;48.708;9.706;2022-07-23T09:26:28;2.70;;;1.50;;
4432;SDS011;2229;48.708;9.706;2022-07-23T09:28:57;3.03;;;1.47;;
4432;SDS011;2229;48.708;9.706;2022-07-23T09:31:27;3.73;;;2.17;;
4432;SDS011;2229;48.708;9.706;2022-07-23T09:34:05;2.33;;;1.30;;
4432;SDS011;2229;48.708;9.706;2022-07-23T09:36:38;3.70;;;2.20;;
4432;SDS011;2229;48.708;9.706;2022-07-23T09:39:05;3.13;;;1.73;;
4432;SDS011;2229;48.708;9.706;2022-07-23T09:41:36;1.60;;;1.07;;
4432;SDS011;2229;48.708;9.706;2022-07-23T09:44:15;2.60;;;1.77;;
4432;SDS011;2229;48.708;9.706;2022-07-23T09:46:43;2.60;;;1.80;;
4432;SDS011;2229;48.708;9.706;2022-07-23T09:49:15;3.53;;;2.70;;
4432;SDS011;2229;48.708;9.706;2022-07-23T09:51:44;3.77;;;2.20;;
4432;SDS011;2229;48.708;9.706;2022-07-23T09:54:32;2.43;;;1.80;;
4432;SDS011;2229;48.708;9.706;2022-07-23T09:57:01;3.53;;;2.03;;
4432;SDS011;2229;48.708;9.706;2022-07-23T09:59:31;2.30;;;2.00;;
4432;SDS011;2229;48.708;9.706;2022-07-23T10:01:59;2.40;;;1.80;;
4432;SDS011;2229;48.708;9.706;2022-07-23T10:04:31;2.70;;;1.23;;
4432;SDS011;2229;48.708;9.706;2022-07-23T10:07:02;1.87;;;1.50;;
4432;SDS011;2229;48.708;9.706;2022-07-23T10:09:48;2.20;;;1.40;;
4432;SDS011;2229;48.708;9.706;2022-07-23T10:12:36;2.03;;;1.60;;
4432;SDS011;2229;48.708;9.706;2022-07-23T10:15:33;2.90;;;2.07;;
4432;SDS011;2229;48.708;9.706;2022-07-23T10:18:00;3.37;;;2.30;;
4432;SDS011;2229;48.708;9.706;2022-07-23T10:20:27;2.33;;;1.53;;
4432;SDS011;2229;48.708;9.706;2022-07-23T10:22:57;2.40;;;1.90;;
4432;SDS011;2229;48.708;9.706;2022-07-23T10:25:32;2.10;;;1.60;;
4432;SDS011;2229;48.708;9.706;2022-07-23T10:28:04;2.90;;;1.47;;
4432;SDS011;2229;48.708;9.706;2022-07-23T10:30:43;4.70;;;2.67;;
4432;SDS011;2229;48.708;9.706;2022-07-23T10:33:17;4.90;;;2.27;;
4432;SDS011;2229;48.708;9.706;2022-07-23T10:35:57;2.07;;;1.40;;
4432;SDS011;2229;48.708;9.706;2022-07-23T10:38:30;2.20;;;1.50;;
4432;SDS011;2229;48.708;9.706;2022-07-23T10:41:02;2.87;;;1.60;;
4432;SDS011;2229;48.708;9.706;2022-07-23T10:43:30;2.90;;;1.17;;
4432;SDS011;2229;48.708;9.706;2022-07-23T10:46:20;3.40;;;2.37;;
4432;SDS011;2229;48.708;9.706;2022-07-23T10:54:44;13.17;;;1.80;;
4432;SDS011;2229;48.708;9.706;2022-07-23T10:57:12;3.33;;;1.93;;
4432;SDS011;2229;48.708;9.706;2022-07-23T11:02:44;6.40;;;2.83;;
4432;SDS011;2229;48.708;9.706;2022-07-23T11:05:13;3.63;;;1.80;;
4432;SDS011;2229;48.708;9.706;2022-07-23T11:10:48;2.70;;;1.80;;
4432;SDS011;2229;48.708;9.706;2022-07-23T11:13:30;2.13;;;1.40;;
4432;SDS011;2229;48.708;9.706;2022-07-23T11:16:14;3.47;;;1.90;;
4432;SDS011;2229;48.708;9.706;2022-07-23T11:18:53;2.97;;;1.80;;
4432;SDS011;2229;48.708;9.706;2022-07-23T11:24:20;4.40;;;1.90;;
4432;SDS011;2229;48.708;9.706;2022-07-23T11:26:53;2.10;;;1.40;;
4432;SDS011;2229;48.708;9.706;2022-07-23T11:29:46;1.80;;;1.47;;
4432;SDS011;2229;48.708;9.706;2022-07-23T11:32:34;2.03;;;1.80;;
4432;SDS011;2229;48.708;9.706;2022-07-23T11:35:18;22.50;;;1.83;;
4432;SDS011;2229;48.708;9.706;2022-07-23T11:37:49;4.20;;;1.97;;
4432;SDS011;2229;48.708;9.706;2022-07-23T11:40:19;2.37;;;1.80;;
4432;SDS011;2229;48.708;9.706;2022-07-23T11:42:52;2.33;;;1.60;;
4432;SDS011;2229;48.708;9.706;2022-07-23T11:45:21;2.23;;;1.67;;
4432;SDS011;2229;48.708;9.706;2022-07-23T11:47:48;3.90;;;2.07;;
4432;SDS011;2229;48.708;9.706;2022-07-23T11:50:15;3.43;;;1.30;;
4432;SDS011;2229;48.708;9.706;2022-07-23T11:52:41;2.27;;;1.43;;
4432;SDS011;2229;48.708;9.706;2022-07-23T11:55:09;2.57;;;1.70;;
4432;SDS011;2229;48.708;9.706;2022-07-23T11:57:37;2.60;;;1.53;;
4432;SDS011;2229;48.708;9.706;2022-07-23T12:00:06;2.40;;;1.70;;
4432;SDS011;2229;48.708;9.706;2022-07-23T12:02:38;2.47;;;1.67;;
4432;SDS011;2229;48.708;9.706;2022-07-23T12:05:06;3.27;;;2.00;;
4432;SDS011;2229;48.708;9.706;2022-07-23T12:07:35;4.30;;;1.47;;
4432;SDS011;2229;48.708;9.706;2022-07-23T12:10:03;5.70;;;1.93;;
4432;SDS011;2229;48.708;9.706;2022-07-23T12:12:35;2.27;;;1.73;;
4432;SDS011;2229;48.708;9.706;2022-07-23T12:15:03;2.33;;;2.00;;
4432;SDS011;2229;48.708;9.706;2022-07-23T12:17:32;3.20;;;1.90;;
4432;SDS011;2229;48.708;9.706;2022-07-23T12:20:01;2.37;;;1.40;;
4432;SDS011;2229;48.708;9.706;2022-07-23T12:22:33;2.60;;;1.23;;
4432;SDS011;2229;48.708;9.706;2022-07-23T12:25:03;2.57;;;1.57;;
4432;SDS011;2229;48.708;9.706;2022-07-23T12:27:32;3.43;;;1.60;;
4432;SDS011;2229;48.708;9.706;2022-07-23T12:29:59;2.60;;;1.50;;
4432;SDS011;2229;48.708;9.706;2022-07-23T12:32:43;2.70;;;1.60;;
4432;SDS011;2229;48.708;9.706;2022-07-23T12:35:10;2.90;;;1.63;;
4432;SDS011;2229;48.708;9.706;2022-07-23T12:37:37;4.03;;;1.60;;
4432;SDS011;2229;48.708;9.706;2022-07-23T12:42:49;2.27;;;1.90;;
4432;SDS011;2229;48.708;9.706;2022-07-23T12:45:17;2.30;;;1.57;;
4432;SDS011;2229;48.708;9.706;2022-07-23T12:47:51;2.90;;;1.90;;
4432;SDS011;2229;48.708;9.706;2022-07-23T12:50:30;2.73;;;1.63;;
4432;SDS011;2229;48.708;9.706;2022-07-23T12:53:03;2.93;;;1.73;;
4432;SDS011;2229;48.708;9.706;2022-07-23T12:55:30;2.10;;;1.53;;
4432;SDS011;2229;48.708;9.706;2022-07-23T12:58:02;3.63;;;2.50;;
4432;SDS011;2229;48.708;9.706;2022-07-23T13:00:30;3.83;;;1.80;;
4432;SDS011;2229;48.708;9.706;2022-07-23T13:02:57;2.13;;;1.57;;
4432;SDS011;2229;48.708;9.706;2022-07-23T13:05:24;2.30;;;1.40;;
4432;SDS011;2229;48.708;9.706;2022-07-23T13:07:54;2.87;;;1.40;;
4432;SDS011;2229;48.708;9.706;2022-07-23T13:10:20;2.83;;;1.67;;
4432;SDS011;2229;48.708;9.706;2022-07-23T13:12:47;2.17;;;1.33;;
4432;SDS011;2229;48.708;9.706;2022-07-23T13:15:13;2.30;;;1.33;;
4432;SDS011;2229;48.708;9.706;2022-07-23T13:17:40;3.63;;;1.70;;
4432;SDS011;2229;48.708;9.706;2022-07-23T13:20:11;2.93;;;2.07;;
4432;SDS011;2229;48.708;9.706;2022-07-23T13:22:37;4.30;;;1.63;;
4432;SDS011;2229;48.708;9.706;2022-07-23T13:25:04;2.47;;;1.40;;
4432;SDS011;2229;48.708;9.706;2022-07-23T13:27:31;2.63;;;1.40;;
4432;SDS011;2229;48.708;9.706;2022-07-23T13:29:58;2.50;;;1.60;;
4432;SDS011;2229;48.708;9.706;2022-07-23T13:32:24;2.43;;;1.50;;
4432;SDS011;2229;48.708;9.706;2022-07-23T13:34:51;2.10;;;1.27;;
4432;SDS011;2229;48.708;9.706;2022-07-23T13:37:18;2.60;;;1.63;;
4432;SDS011;2229;48.708;9.706;2022-07-23T13:39:45;2.50;;;1.97;;
4432;SDS011;2229;48.708;9.706;2022-07-23T13:42:11;3.40;;;1.67;;
4432;SDS011;2229;48.708;9.706;2022-07-23T13:44:38;2.47;;;1.60;;
4432;SDS011;2229;48.708;9.706;2022-07-23T13:47:04;7.00;;;1.73;;
4432;SDS011;2229;48.708;9.706;2022-07-23T13:49:31;2.77;;;2.00;;
4432;SDS011;2229;48.708;9.706;2022-07-23T13:51:57;4.10;;;2.03;;
4432;SDS011;2229;48.708;9.706;2022-07-23T13:54:25;2.50;;;1.70;;
4432;SDS011;2229;48.708;9.706;2022-07-23T13:56:51;3.20;;;1.90;;
4432;SDS011;2229;48.708;9.706;2022-07-23T13:59:18;2.23;;;1.40;;
4432;SDS011;2229;48.708;9.706;2022-07-23T14:01:44;4.13;;;2.27;;
4432;SDS011;2229;48.708;9.706;2022-07-23T14:04:11;2.03;;;1.50;;
4432;SDS011;2229;48.708;9.706;2022-07-23T14:06:38;2.40;;;1.37;;
4432;SDS011;2229;48.708;9.706;2022-07-23T14:09:04;1.60;;;1.47;;
4432;SDS011;2229;48.708;9.706;2022-07-23T14:11:31;4.60;;;2.00;;
4432;SDS011;2229;48.708;9.706;2022-07-23T14:13:59;2.60;;;1.40;;
4432;SDS011;2229;48.708;9.706;2022-07-23T14:16:29;2.13;;;1.40;;
4432;SDS011;2229;48.708;9.706;2022-07-23T14:18:58;3.00;;;1.20;;
4432;SDS011;2229;48.708;9.706;2022-07-23T14:21:24;3.47;;;1.50;;
4432;SDS011;2229;48.708;9.706;2022-07-23T14:23:51;4.10;;;2.00;;
4432;SDS011;2229;48.708;9.706;2022-07-23T14:26:18;3.53;;;1.80;;
4432;SDS011;2229;48.708;9.706;2022-07-23T14:28:45;2.93;;;1.73;;
4432;SDS011;2229;48.708;9.706;2022-07-23T14:31:32;1.97;;;1.30;;
4432;SDS011;2229;48.708;9.706;2022-07-23T14:33:58;2.53;;;1.73;;
4432;SDS011;2229;48.708;9.706;2022-07-23T14:36:25;2.10;;;1.20;;
4432;SDS011;2229;48.708;9.706;2022-07-23T14:38:52;2.13;;;1.60;;
4432;SDS011;2229;48.708;9.706;2022-07-23T14:41:19;3.40;;;1.93;;
4432;SDS011;2229;48.708;9.706;2022-07-23T14:43:46;2.87;;;1.57;;
4432;SDS011;2229;48.708;9.706;2022-07-23T14:46:13;2.47;;;1.50;;
4432;SDS011;2229;48.708;9.706;2022-07-23T14:48:39;2.50;;;1.37;;
4432;SDS011;2229;48.708;9.706;2022-07-23T14:51:06;2.87;;;1.93;;
4432;SDS011;2229;48.708;9.706;2022-07-23T14:53:33;3.30;;;1.70;;
4432;SDS011;2229;48.708;9.706;2022-07-23T14:55:59;2.73;;;1.37;;
4432;SDS011;2229;48.708;9.706;2022-07-23T14:58:26;3.30;;;2.13;;
4432;SDS011;2229;48.708;9.706;2022-07-23T15:00:53;2.00;;;1.60;;
4432;SDS011;2229;48.708;9.706;2022-07-23T15:03:20;4.33;;;2.13;;
4432;SDS011;2229;48.708;9.706;2022-07-23T15:05:47;1.97;;;1.20;;
4432;SDS011;2229;48.708;9.706;2022-07-23T15:08:13;2.10;;;1.50;;
4432;SDS011;2229;48.708;9.706;2022-07-23T15:10:40;3.10;;;1.90;;
4432;SDS011;2229;48.708;9.706;2022-07-23T15:13:07;4.00;;;1.70;;
4432;SDS011;2229;48.708;9.706;2022-07-23T15:15:33;3.20;;;2.07;;
4432;SDS011;2229;48.708;9.706;2022-07-23T15:18:00;3.80;;;1.30;;
4432;SDS011;2229;48.708;9.706;2022-07-23T15:20:27;2.30;;;2.07;;
4432;SDS011;2229;48.708;9.706;2022-07-23T15:22:54;2.30;;;1.43;;
4432;SDS011;2229;48.708;9.706;2022-07-23T15:25:20;4.00;;;2.40;;
4432;SDS011;2229;48.708;9.706;2022-07-23T15:27:47;3.60;;;1.90;;
4432;SDS011;2229;48.708;9.706;2022-07-23T15:30:13;2.40;;;1.67;;
4432;SDS011;2229;48.708;9.706;2022-07-23T15:32:40;2.83;;;2.30;;
4432;SDS011;2229;48.708;9.706;2022-07-23T15:35:08;2.70;;;1.70;;
4432;SDS011;2229;48.708;9.706;2022-07-23T15:37:34;3.10;;;1.67;;
4432;SDS011;2229;48.708;9.706;2022-07-23T15:40:01;2.97;;;2.10;;
4432;SDS011;2229;48.708;9.706;2022-07-23T15:42:30;2.50;;;1.60;;
4432;SDS011;2229;48.708;9.706;2022-07-23T15:44:57;2.57;;;1.57;;